createdAt,value
2019-05-10T00:00:17.253Z,1.2
2019-05-10T00:05:17.186Z,2.1
2019-05-10T00:10:17.730Z,0.9
2019-05-10T00:15:17.665Z,2
2019-05-10T00:20:26.907Z,2
2019-05-10T00:25:21.965Z,2
2019-05-10T00:30:16.968Z,0.4
2019-05-10T00:35:16.890Z,1.9
2019-05-10T00:40:16.945Z,1.9
2019-05-10T00:45:16.928Z,1.9
2019-05-10T00:50:16.856Z,0.6
2019-05-10T00:55:19.704Z,2.5
2019-05-10T01:00:17.914Z,1.3
2019-05-10T01:05:16.815Z,2.1
2019-05-10T01:10:16.995Z,2.2
2019-05-10T01:15:16.956Z,2.4
2019-05-10T01:20:17.048Z,1
2019-05-10T01:25:17.032Z,3
2019-05-10T01:30:16.975Z,2.8
2019-05-10T01:35:16.901Z,1.6
2019-05-10T01:40:16.965Z,3.5
2019-05-10T01:45:16.895Z,2.5
2019-05-10T01:50:17.814Z,3.6
2019-05-10T01:55:21.824Z,2
2019-05-10T02:00:17.725Z,4.3
2019-05-10T02:05:17.659Z,4.1
2019-05-10T02:10:17.744Z,3.9
2019-05-10T02:15:17.886Z,4.2
2019-05-10T02:20:16.973Z,4.9
2019-05-10T02:25:16.843Z,4.7
2019-05-10T02:30:17.776Z,4.8
2019-05-10T02:35:17.746Z,4.4
2019-05-10T02:40:17.829Z,5
2019-05-10T02:45:18.038Z,5.2
2019-05-10T02:50:16.928Z,2.8
2019-05-10T02:55:16.823Z,5
2019-05-10T03:00:17.707Z,2.5
2019-05-10T03:05:28.724Z,4.8
2019-05-10T03:10:17.935Z,5.4
2019-05-10T03:15:17.889Z,1.2
2019-05-10T03:20:16.988Z,7.1
2019-05-10T03:25:17.133Z,7.1
2019-05-10T03:30:17.337Z,7.8
2019-05-10T03:35:22.326Z,8.5
2019-05-10T03:40:17.474Z,7.9
2019-05-10T03:45:17.424Z,9.4
2019-05-10T03:50:17.347Z,2.6
2019-05-10T03:55:17.314Z,8.9
2019-05-10T04:00:17.255Z,8.9
2019-05-10T04:05:17.188Z,10.5
2019-05-10T04:10:21.218Z,10.9
2019-05-10T04:15:17.273Z,9.2
2019-05-10T04:20:17.364Z,9.8
2019-05-10T04:25:17.295Z,9.5
2019-05-10T04:30:17.173Z,11.4
2019-05-10T04:35:17.304Z,10.7
2019-05-10T04:40:17.581Z,3.8
2019-05-10T04:45:22.738Z,11.2
2019-05-10T04:50:17.980Z,9.7
2019-05-10T04:55:17.045Z,9.8
2019-05-10T05:00:17.194Z,4.4
2019-05-10T05:05:17.133Z,9.9
2019-05-10T05:10:17.182Z,8.8
2019-05-10T05:15:17.093Z,8.6
2019-05-10T05:20:17.151Z,1.9
2019-05-10T05:25:17.113Z,8.9
2019-05-10T05:30:17.070Z,3.1
2019-05-10T05:35:16.955Z,8.3
2019-05-10T05:40:17.024Z,8.7
2019-05-10T05:45:16.951Z,3.1
2019-05-10T05:50:16.936Z,8.7
2019-05-10T05:55:17.076Z,1.6
2019-05-10T06:00:16.990Z,9.1
2019-05-10T06:05:36.713Z,10.3
2019-05-10T06:10:19.966Z,11
2019-05-10T06:15:16.980Z,11.5
2019-05-10T06:20:17.090Z,11.9
2019-05-10T06:25:17.530Z,11.5
2019-05-10T06:30:23.593Z,2.8
2019-05-10T06:35:25.561Z,10.5
2019-05-10T06:40:39.510Z,9.1
2019-05-10T06:45:16.821Z,2
2019-05-10T06:50:28.502Z,6.8
2019-05-10T06:55:17.290Z,6.3
2019-05-10T07:00:18.262Z,6.6
2019-05-10T07:05:27.482Z,7.3
2019-05-10T07:10:25.112Z,1
2019-05-10T07:15:18.604Z,6.8
2019-05-10T07:20:17.784Z,2.3
2019-05-10T07:25:17.940Z,7.5
2019-05-10T07:30:17.459Z,6.8
2019-05-10T07:35:30.792Z,6.5
2019-05-10T07:40:22.169Z,1.7
2019-05-10T07:45:25.456Z,5.9
2019-05-10T07:50:22.297Z,5.7
2019-05-10T07:55:28.168Z,5.3
2019-05-10T08:00:25.826Z,4.9
2019-05-10T08:05:18.791Z,5.1
2019-05-10T08:10:21.957Z,4.4
2019-05-10T08:15:24.596Z,1.9
2019-05-10T08:20:46.070Z,5.1
2019-05-10T08:25:17.438Z,0.8
2019-05-10T08:30:29.060Z,4.3
2019-05-10T08:35:19.077Z,5
2019-05-10T08:40:25.823Z,4.9
2019-05-10T08:45:22.463Z,1
2019-05-10T08:50:50.363Z,5.3
2019-05-10T08:55:17.566Z,0.9
2019-05-10T09:00:17.538Z,3.8
2019-05-10T09:05:29.263Z,4.1
2019-05-10T09:10:17.239Z,3.9
2019-05-10T09:15:18.224Z,3.6
2019-05-10T09:20:27.876Z,2.7
2019-05-10T09:25:28.725Z,0.8
2019-05-10T09:30:18.878Z,2.1
2019-05-10T09:35:22.798Z,0.4
2019-05-10T09:40:16.880Z,1.7
2019-05-10T09:45:24.639Z,0.1
2019-05-10T09:50:17.598Z,1.5
2019-05-10T09:55:22.525Z,2
2019-05-10T10:00:17.766Z,2
2019-05-10T10:05:23.143Z,0.3
2019-05-10T10:10:29.251Z,1.6
2019-05-10T10:15:33.714Z,0.5
2019-05-10T10:20:22.603Z,1.3
2019-05-10T10:25:40.333Z,0.4
2019-05-10T10:30:22.314Z,1.2
2019-05-10T10:35:26.827Z,0.2
2019-05-10T10:40:23.088Z,1.2
2019-05-10T10:45:22.344Z,1.4
2019-05-10T10:50:23.524Z,0.1
2019-05-10T10:55:30.249Z,1.5
2019-05-10T11:00:28.565Z,0.2
2019-05-10T11:05:18.657Z,1.7
2019-05-10T11:10:22.346Z,1.5
2019-05-10T11:15:35.749Z,0.2
2019-05-10T11:20:24.483Z,1.6
2019-05-10T11:25:17.465Z,1.4
2019-05-10T11:30:17.513Z,0.5
2019-05-10T11:35:31.897Z,1.8
2019-05-10T11:40:29.742Z,0.1
2019-05-10T11:45:16.883Z,1.4
2019-05-10T11:50:34.443Z,1.9
2019-05-10T11:55:17.419Z,0.2
2019-05-10T12:00:34.302Z,1.6
2019-05-10T12:10:25.807Z,1.9
2019-05-10T12:15:25.757Z,0.6
2019-05-10T12:22:21.439Z,1.4
2019-05-10T12:25:50.911Z,0.2
2019-05-10T12:26:15.238Z,0.5
2019-05-10T12:30:29.388Z,1.3
2019-05-10T12:35:26.339Z,1.3
2019-05-10T12:40:45.516Z,0.2
2019-05-10T12:45:23.534Z,1.5
2019-05-10T12:50:20.702Z,0.2
2019-05-10T12:55:18.709Z,1.4
2019-05-10T13:00:17.853Z,1.5
2019-05-10T13:05:17.963Z,0.2
2019-05-10T13:10:17.236Z,1.5
2019-05-10T13:15:17.274Z,0.2
2019-05-10T13:20:36.372Z,1.6
2019-05-10T13:25:17.800Z,0
2019-05-10T13:30:28.313Z,1.6
2019-05-10T13:35:22.708Z,0.3
2019-05-10T13:40:28.763Z,1.6
2019-05-10T13:45:23.825Z,1.5
2019-05-10T13:50:17.845Z,0.4
2019-05-10T13:55:24.321Z,0.1
2019-05-10T14:00:18.524Z,0.4
2019-05-10T14:05:20.104Z,0.2
2019-05-10T14:10:23.191Z,0.6
2019-05-10T14:15:18.242Z,0.8
2019-05-10T14:20:27.611Z,1.7
2019-05-10T14:25:17.691Z,0.8
2019-05-10T14:30:18.844Z,0.3
2019-05-10T14:35:24.804Z,0.4
2019-05-10T14:40:30.458Z,0.5
2019-05-10T14:45:18.200Z,0.5
2019-05-10T14:50:25.966Z,0.9
2019-05-10T14:55:22.526Z,0.4
2019-05-10T15:00:32.461Z,0.2
2019-05-10T15:05:18.750Z,0.9
2019-05-10T15:10:16.768Z,0.8
2019-05-10T15:15:17.750Z,0.7
2019-05-10T15:20:17.059Z,0.2
2019-05-10T15:25:27.219Z,0.5
2019-05-10T15:30:22.369Z,0.2
2019-05-10T15:35:17.510Z,2.2
2019-05-10T15:40:17.559Z,2.4
2019-05-10T15:45:19.773Z,1.2
2019-05-10T15:50:17.690Z,1.1
2019-05-10T15:55:28.626Z,1.5
2019-05-10T16:00:17.690Z,0.8
2019-05-10T16:05:42.818Z,2.5
2019-05-10T16:10:17.427Z,0.5
2019-05-10T16:15:21.400Z,2.3
2019-05-10T16:20:17.490Z,0.6
2019-05-10T16:25:17.408Z,2
2019-05-10T16:30:20.238Z,0.2
2019-05-10T16:35:17.267Z,2.7
2019-05-10T16:40:17.300Z,0.4
2019-05-10T16:45:17.217Z,2
2019-05-10T16:50:25.885Z,0.2
2019-05-10T16:55:17.128Z,0.2
2019-05-10T17:00:17.026Z,0.6
2019-05-10T17:05:17.709Z,0.3
2019-05-10T17:10:17.757Z,0.3
2019-05-10T17:15:17.660Z,0.1
2019-05-10T17:20:17.726Z,1.2
2019-05-10T17:25:17.595Z,0.7
2019-05-10T17:30:27.553Z,0
2019-05-10T17:35:17.796Z,0.3
2019-05-10T17:40:16.796Z,0.2
2019-05-10T17:45:19.256Z,0.4
2019-05-10T17:50:17.125Z,1
2019-05-10T17:55:18.648Z,1.4
2019-05-10T18:00:23.557Z,0.6
2019-05-10T18:05:17.438Z,0.4
2019-05-10T18:10:17.496Z,0.2
2019-05-10T18:15:17.377Z,0.9
2019-05-10T18:20:17.443Z,0.3
2019-05-10T18:25:22.276Z,0.6
2019-05-10T18:30:17.356Z,2.2
2019-05-10T18:35:17.574Z,2.2
2019-05-10T18:40:17.583Z,0.5
2019-05-10T18:45:17.454Z,0.9
2019-05-10T18:50:17.387Z,2.2
2019-05-10T18:55:17.383Z,0.3
2019-05-10T19:00:22.862Z,2.2
2019-05-10T19:05:17.154Z,0.6
2019-05-10T19:10:17.266Z,2.4
2019-05-10T19:15:17.228Z,0.4
2019-05-10T19:20:18.818Z,2.1
2019-05-10T19:25:22.966Z,2.6
2019-05-10T19:30:22.337Z,2.8
2019-05-10T19:35:17.405Z,0.4
2019-05-10T19:40:17.494Z,2.1
2019-05-10T19:45:21.118Z,0.5
2019-05-10T19:50:17.217Z,2.4
2019-05-10T19:55:21.722Z,0.4
2019-05-10T20:00:17.766Z,2.1
2019-05-10T20:05:17.717Z,2.4
2019-05-10T20:10:18.003Z,2.4
2019-05-10T20:15:16.874Z,0.8
2019-05-10T20:20:16.974Z,2.3
2019-05-10T20:25:16.872Z,1.8
2019-05-10T20:30:17.883Z,3.2
2019-05-10T20:35:16.801Z,3.8
2019-05-10T20:40:16.863Z,5.4
2019-05-10T20:45:16.920Z,2.5
2019-05-10T20:50:16.819Z,4.9
2019-05-10T20:55:17.712Z,4.6
2019-05-10T21:00:17.781Z,3.1
2019-05-10T21:05:17.975Z,5
2019-05-10T21:10:17.060Z,5
2019-05-10T21:15:16.991Z,5
2019-05-10T21:20:17.091Z,4.7
2019-05-10T21:25:23.142Z,4.9
2019-05-10T21:30:22.354Z,4.6
2019-05-10T21:35:17.320Z,4.4
2019-05-10T21:40:17.479Z,3.9
2019-05-10T21:45:17.391Z,3.7
2019-05-10T21:50:22.289Z,3.8
2019-05-10T21:55:22.239Z,1.4
2019-05-10T22:00:17.396Z,0.9
2019-05-10T22:05:17.378Z,3.2
2019-05-10T22:10:17.430Z,3.4
2019-05-10T22:15:17.330Z,0.5
2019-05-10T22:20:22.467Z,3.1
2019-05-10T22:25:17.387Z,1.8
2019-05-10T22:30:23.028Z,3
2019-05-10T22:35:16.972Z,3
2019-05-10T22:40:17.078Z,0.7
2019-05-10T22:45:16.988Z,2.9
2019-05-10T22:50:18.093Z,3.3
2019-05-10T22:55:17.021Z,0.9
2019-05-10T23:00:16.957Z,3.8
2019-05-10T23:05:17.041Z,3.1
2019-05-10T23:10:17.048Z,2
2019-05-10T23:15:16.927Z,0.7
2019-05-10T23:20:17.087Z,2
2019-05-10T23:25:16.976Z,0.7
2019-05-10T23:30:16.859Z,1.5
2019-05-10T23:35:18.006Z,2.1
2019-05-10T23:40:17.038Z,1.3
2019-05-10T23:45:18.016Z,3.1
2019-05-10T23:50:17.199Z,3.2
2019-05-10T23:55:17.138Z,3
